createdAt,value
2024-02-27T00:06:55.274Z,100337.00
2024-02-27T00:16:55.198Z,100339.00
2024-02-27T00:26:55.212Z,100345.00
2024-02-27T00:36:55.253Z,100349.00
2024-02-27T00:46:55.238Z,100355.00
2024-02-27T00:56:55.322Z,100361.00
2024-02-27T01:06:55.473Z,100374.00
2024-02-27T01:16:55.283Z,100384.00
2024-02-27T01:26:55.355Z,100392.00
2024-02-27T01:36:55.335Z,100400.00
2024-02-27T01:46:55.297Z,100406.00
2024-02-27T01:56:55.361Z,100413.00
2024-02-27T02:06:55.365Z,100415.00
2024-02-27T02:16:55.411Z,100421.00
2024-02-27T02:26:55.384Z,100429.00
2024-02-27T02:36:55.398Z,100433.00
2024-02-27T02:46:55.381Z,100429.00
2024-02-27T02:56:55.461Z,100429.00
2024-02-27T03:06:55.516Z,100447.00
2024-02-27T03:16:55.371Z,100453.00
2024-02-27T03:26:54.453Z,100447.00
2024-02-27T03:36:54.444Z,100455.00
2024-02-27T03:46:54.415Z,100458.00
2024-02-27T03:56:54.450Z,100470.00
2024-02-27T04:06:54.568Z,100482.00
2024-02-27T04:16:54.496Z,100488.00
2024-02-27T04:26:54.503Z,100496.00
2024-02-27T04:36:54.523Z,100513.00
2024-02-27T04:46:56.895Z,100525.00
2024-02-27T04:56:56.575Z,100545.00
2024-02-27T05:06:56.684Z,100557.00
2024-02-27T05:16:56.596Z,100569.00
2024-02-27T05:26:56.615Z,100579.00
2024-02-27T05:36:56.592Z,100587.00
2024-02-27T05:46:56.648Z,100589.00
2024-02-27T05:56:56.603Z,100590.00
2024-02-27T06:06:56.769Z,100602.00
2024-02-27T06:16:56.638Z,100612.00
2024-02-27T06:26:56.669Z,100626.00
2024-02-27T06:36:56.638Z,100637.00
2024-02-27T06:46:56.659Z,100645.00
2024-02-27T06:56:56.665Z,100665.00
2024-02-27T07:06:56.902Z,100677.00
2024-02-27T07:16:56.681Z,100683.00
2024-02-27T07:26:56.728Z,100683.00
2024-02-27T07:36:56.743Z,100686.00
2024-02-27T07:46:56.757Z,100694.00
2024-02-27T07:56:56.760Z,100716.00
2024-02-27T08:06:56.884Z,100731.00
2024-02-27T08:16:56.770Z,100743.00
2024-02-27T08:26:59.522Z,100749.00
2024-02-27T08:36:57.836Z,100765.00
2024-02-27T08:46:57.850Z,100780.00
2024-02-27T08:56:57.837Z,100784.00
2024-02-27T09:06:57.910Z,100784.00
2024-02-27T09:16:57.854Z,100784.00
2024-02-27T09:26:57.844Z,100778.00
2024-02-27T09:36:57.890Z,100778.00
2024-02-27T09:46:57.903Z,100784.00
2024-02-27T09:56:57.888Z,100790.00
2024-02-27T10:06:58.041Z,100790.00
2024-02-27T10:16:57.950Z,100819.00
2024-02-27T10:26:57.971Z,100830.00
2024-02-27T10:36:58.003Z,100832.00
2024-02-27T10:46:57.983Z,100830.00
2024-02-27T10:56:57.983Z,100832.00
2024-02-27T11:06:58.187Z,100830.00
2024-02-27T11:16:58.005Z,100826.00
2024-02-27T11:26:58.048Z,100815.00
2024-02-27T11:36:58.049Z,100803.00
2024-02-27T11:46:58.035Z,100792.00
2024-02-27T11:56:58.051Z,100792.00
2024-02-27T12:06:58.273Z,100792.00
2024-02-27T12:16:58.081Z,100805.00
2024-02-27T12:26:58.076Z,100813.00
2024-02-27T12:36:58.170Z,100805.00
2024-02-27T12:46:58.115Z,100792.00
2024-02-27T12:56:58.098Z,100778.00
2024-02-27T13:06:58.265Z,100771.00
2024-02-27T13:16:58.187Z,100759.00
2024-02-27T13:26:58.182Z,100757.00
2024-02-27T13:36:58.193Z,100753.00
2024-02-27T13:46:58.201Z,100749.00
2024-02-27T13:56:58.218Z,100739.00
2024-02-27T14:06:58.405Z,100728.00
2024-02-27T14:16:58.220Z,100722.00
2024-02-27T14:26:58.226Z,100720.00
2024-02-27T14:36:58.271Z,100724.00
2024-02-27T14:46:58.269Z,100722.00
2024-02-27T14:56:58.293Z,100733.00
2024-02-27T15:06:58.430Z,100737.00
2024-02-27T15:16:58.324Z,100733.00
2024-02-27T15:26:58.361Z,100741.00
2024-02-27T15:36:58.355Z,100749.00
2024-02-27T15:46:58.381Z,100755.00
2024-02-27T15:56:58.386Z,100755.00
2024-02-27T16:06:58.467Z,100761.00
2024-02-27T16:16:58.388Z,100767.00
2024-02-27T16:26:58.400Z,100775.00
2024-02-27T16:36:58.510Z,100782.00
2024-02-27T16:46:58.419Z,100792.00
2024-02-27T16:56:58.480Z,100811.00
2024-02-27T17:06:58.601Z,100824.00
2024-02-27T17:16:58.434Z,100836.00
2024-02-27T17:26:58.517Z,100850.00
2024-02-27T17:36:58.542Z,100854.00
2024-02-27T17:46:58.498Z,100867.00
2024-02-27T17:56:58.481Z,100883.00
2024-02-27T18:06:58.689Z,100907.00
2024-02-27T18:16:58.602Z,100920.00
2024-02-27T18:26:58.514Z,100936.00
2024-02-27T18:36:58.552Z,100950.00
2024-02-27T18:46:58.550Z,100958.00
2024-02-27T18:56:58.563Z,100958.00
2024-02-27T19:06:58.676Z,100958.00
2024-02-27T19:16:58.616Z,100960.00
2024-02-27T19:26:58.575Z,100956.00
2024-02-27T19:36:58.702Z,100962.00
2024-02-27T19:46:58.617Z,100979.00
2024-02-27T19:56:58.632Z,100991.00
2024-02-27T20:06:58.700Z,101001.00
2024-02-27T20:16:58.635Z,101001.00
2024-02-27T20:26:58.684Z,101005.00
2024-02-27T20:36:58.696Z,101009.00
2024-02-27T20:46:58.663Z,101018.00
2024-02-27T20:56:58.722Z,101028.00
2024-02-27T21:06:58.747Z,101032.00
2024-02-27T21:16:58.748Z,101036.00
2024-02-27T21:26:58.780Z,101044.00
2024-02-27T21:36:58.841Z,101046.00
2024-02-27T21:46:58.776Z,101044.00
2024-02-27T21:56:58.818Z,101058.00
2024-02-27T22:06:58.823Z,101068.00
2024-02-27T22:16:58.779Z,101060.00
2024-02-27T22:26:58.822Z,101048.00
2024-02-27T22:36:58.856Z,101038.00
2024-02-27T22:46:58.835Z,101036.00
2024-02-27T22:56:58.839Z,101034.00
2024-02-27T23:06:58.917Z,101042.00
2024-02-27T23:17:01.050Z,101048.00
2024-02-27T23:27:00.876Z,101074.00
2024-02-27T23:37:00.884Z,101074.00
2024-02-27T23:47:00.907Z,101078.00
2024-02-27T23:57:00.924Z,101096.00
